Time;durP1;ratioP1;P1;durP2;ratioP2;P2;SDS_P1;SDS_P2;PMS_P1;PMS_P2;Temp;Humidity;BMP_temperature;BMP_pressure;BME280_temperature;BME280_humidity;BME280_pressure;Samples;Min_cycle;Max_cycle;Signal;HPM_P1;HPM_P2
2022/01/28 04:49:55;;;;;;;12.27;7.80;;;;;;;8.43;56.98;100213.06;6924865;28;20617;-80
2022/01/28 04:53:33;;;;;;;7.67;6.23;;;;;;;8.51;57.03;100219.34;6927040;28;20263;-80
2022/01/28 04:57:03;;;;;;;8.67;6.17;;;;;;;8.40;56.31;100210.69;6926533;28;20234;-81
2022/01/28 05:00:34;;;;;;;9.03;6.77;;;;;;;8.53;56.57;100200.34;6926246;28;20213;-81
2022/01/28 05:04:09;;;;;;;10.27;7.23;;;;;;;8.37;57.49;100227.13;6923291;28;20203;-81
2022/01/28 05:07:45;;;;;;;11.63;7.57;;;;;;;8.40;57.30;100233.03;6923317;28;20214;-82
2022/01/28 05:15:21;;;;;;;10.00;7.07;;;;;;;8.21;57.28;100241.28;6921414;28;20230;-82
2022/01/28 05:26:25;;;;;;;11.97;7.13;;;;;;;7.98;57.61;100250.78;6889366;28;20230;-82
2022/01/28 05:29:47;;;;;;;10.57;8.37;;;;;;;8.20;56.76;100228.00;6923306;28;20234;-81
2022/01/28 05:33:09;;;;;;;12.70;7.83;;;;;;;8.03;57.26;100247.63;6923321;28;20255;-82
2022/01/28 05:36:30;;;;;;;10.87;7.80;;;;;;;7.76;58.11;100247.69;6922602;28;20231;-81
2022/01/28 05:39:52;;;;;;;10.87;7.40;;;;;;;7.53;58.42;100249.97;6933313;28;20208;-80
2022/01/28 05:43:15;;;;;;;15.10;9.40;;;;;;;7.54;58.48;100261.56;6927358;28;20205;-82
2022/01/28 05:46:36;;;;;;;10.53;7.83;;;;;;;7.57;58.58;100262.09;6925431;28;20295;-80
2022/01/28 05:49:58;;;;;;;14.00;8.53;;;;;;;8.22;56.71;100261.78;6925597;28;20216;-81
2022/01/28 05:53:19;;;;;;;12.40;9.33;;;;;;;7.50;58.87;100269.06;6925688;28;20499;-81
2022/01/28 05:56:41;;;;;;;16.23;9.73;;;;;;;7.59;58.66;100262.78;6923849;28;20234;-80
2022/01/28 06:00:05;;;;;;;12.87;9.20;;;;;;;7.07;59.90;100255.44;6924704;28;20257;-81
2022/01/28 06:03:27;;;;;;;14.90;9.50;;;;;;;7.21;60.10;100287.16;6924941;28;20254;-81
2022/01/28 06:06:48;;;;;;;15.93;9.30;;;;;;;6.68;61.00;100274.47;6924136;28;20241;-80
2022/01/28 06:10:11;;;;;;;13.43;9.47;;;;;;;7.13;60.41;100295.06;6924471;28;20228;-82
2022/01/28 06:13:32;;;;;;;14.20;9.60;;;;;;;6.72;60.15;100239.19;6923568;28;20586;-83
2022/01/28 06:16:55;;;;;;;12.10;9.17;;;;;;;7.42;58.83;100293.09;6923391;28;20273;-81
2022/01/28 06:20:19;;;;;;;12.23;9.00;;;;;;;6.80;60.73;100316.22;6922879;28;20356;-80
2022/01/28 06:23:41;;;;;;;11.60;9.23;;;;;;;6.98;60.60;100336.78;6915373;28;20217;-80
2022/01/28 06:27:03;;;;;;;13.40;9.63;;;;;;;7.63;58.76;100325.06;6918953;28;20243;-81
2022/01/28 06:30:25;;;;;;;14.70;9.77;;;;;;;7.20;59.24;100339.09;6920347;28;20305;-80
2022/01/28 06:33:48;;;;;;;14.17;9.93;;;;;;;7.09;60.45;100347.34;6915261;28;20204;-81
2022/01/28 06:37:09;;;;;;;12.13;9.30;;;;;;;7.28;59.82;100327.63;6919413;28;20307;-81
2022/01/28 06:40:31;;;;;;;15.73;10.10;;;;;;;7.52;59.48;100366.38;6920404;28;20661;-80
2022/01/28 06:43:53;;;;;;;14.17;10.63;;;;;;;8.03;58.02;100377.41;6920188;28;20269;-81
2022/01/28 06:47:14;;;;;;;15.00;10.57;;;;;;;8.18;56.94;100367.81;6922072;28;20248;-81
2022/01/28 06:50:38;;;;;;;14.70;10.83;;;;;;;8.30;56.50;100355.06;6923009;28;20233;-81
2022/01/28 06:53:59;;;;;;;14.73;11.13;;;;;;;8.11;56.78;100361.38;6922212;28;20210;-81
2022/01/28 06:57:21;;;;;;;16.97;12.70;;;;;;;7.70;57.26;100364.59;6923482;28;20241;-80
2022/01/28 07:00:42;;;;;;;22.07;13.23;;;;;;;7.44;57.92;100341.25;6918796;28;20221;-84
2022/01/28 07:04:04;;;;;;;19.07;12.40;;;;;;;7.49;58.84;100369.34;6896009;28;20207;-82
2022/01/28 07:07:27;;;;;;;18.13;11.67;;;;;;;7.26;59.44;100380.59;6895658;28;20341;-82
2022/01/28 07:10:49;;;;;;;18.40;11.77;;;;;;;7.41;59.69;100371.06;6896928;28;20228;-81
2022/01/28 07:14:10;;;;;;;18.57;11.60;;;;;;;7.36;59.57;100387.59;6895602;28;20230;-82
2022/01/28 07:17:32;;;;;;;19.40;11.93;;;;;;;7.13;60.02;100380.91;6896365;28;20223;-81
2022/01/28 07:20:53;;;;;;;21.23;11.83;;;;;;;7.57;59.43;100395.44;6897284;28;20201;-81
2022/01/28 07:24:17;;;;;;;20.30;12.07;;;;;;;7.45;59.72;100391.25;6894749;28;20274;-82
2022/01/28 07:27:38;;;;;;;17.43;11.53;;;;;;;7.34;59.55;100368.13;6920054;28;20212;-82
2022/01/28 07:31:00;;;;;;;16.87;10.77;;;;;;;7.69;58.50;100397.81;6916978;28;20235;-81
2022/01/28 07:34:22;;;;;;;12.70;9.70;;;;;;;7.77;58.74;100378.28;6896006;28;20213;-82
2022/01/28 07:37:43;;;;;;;12.73;9.07;;;;;;;7.69;57.97;100372.78;6902142;28;20214;-82
2022/01/28 07:41:06;;;;;;;15.40;9.43;;;;;;;7.96;57.89;100375.47;6928301;28;20208;-80
2022/01/28 07:44:28;;;;;;;12.00;8.47;;;;;;;7.58;58.25;100389.06;6933547;28;20248;-82
2022/01/28 07:47:50;;;;;;;12.20;9.20;;;;;;;7.69;57.96;100400.47;6944485;28;20217;-82
2022/01/28 07:51:11;;;;;;;11.27;8.10;;;;;;;7.59;58.07;100399.66;6929399;28;20234;-80
2022/01/28 07:54:33;;;;;;;14.83;8.67;;;;;;;8.21;57.08;100397.13;6930359;28;20596;-81
2022/01/28 07:57:56;;;;;;;11.20;7.87;;;;;;;8.28;56.23;100402.72;6929875;28;20364;-82
2022/01/28 08:01:17;;;;;;;11.93;7.77;;;;;;;8.32;55.51;100366.50;6928278;28;20201;-81
2022/01/28 08:04:39;;;;;;;10.27;7.40;;;;;;;8.26;56.08;100376.00;6929339;28;20226;-80
2022/01/28 08:08:04;;;;;;;9.03;6.77;;;;;;;8.45;55.20;100394.69;6927639;28;20664;-81
2022/01/28 08:11:26;;;;;;;8.37;6.30;;;;;;;8.60;54.51;100409.25;6928046;28;20219;-80
2022/01/28 08:14:49;;;;;;;8.30;5.83;;;;;;;8.71;54.33;100413.59;6924490;28;20228;-80
2022/01/28 08:18:11;;;;;;;10.03;6.40;;;;;;;8.80;53.97;100424.25;6927407;28;20211;-80
2022/01/28 08:21:33;;;;;;;9.80;7.03;;;;;;;8.75;54.10;100440.00;6927379;28;20435;-81
2022/01/28 08:24:54;;;;;;;9.63;6.90;;;;;;;8.66;54.56;100440.09;6928163;28;20302;-81
2022/01/28 08:28:16;;;;;;;8.03;6.83;;;;;;;8.55;54.09;100378.47;6930016;28;20237;-80
2022/01/28 08:31:39;;;;;;;12.50;7.73;;;;;;;8.60;54.63;100408.44;6929647;28;20215;-81
2022/01/28 08:35:00;;;;;;;11.97;7.07;;;;;;;9.07;54.57;100431.38;6925678;28;20223;-80
2022/01/28 08:38:29;;;;;;;9.63;5.73;;;;;;;8.79;53.72;100411.78;6925596;28;20202;-80
2022/01/28 08:41:50;;;;;;;9.70;6.93;;;;;;;8.66;54.59;100430.16;6926060;28;20218;-80
2022/01/28 08:45:12;;;;;;;9.40;5.97;;;;;;;8.68;53.79;100443.44;6925337;28;20231;-81
2022/01/28 08:48:35;;;;;;;9.23;6.60;;;;;;;9.12;54.08;100446.03;6925115;28;20223;-81
2022/01/28 08:51:58;;;;;;;11.27;6.40;;;;;;;9.42;52.98;100453.66;6924935;28;20219;-80
2022/01/28 08:55:19;;;;;;;10.90;6.97;;;;;;;9.27;52.64;100455.25;6925739;28;20225;-81
2022/01/28 08:58:41;;;;;;;8.63;5.77;;;;;;;9.31;52.81;100449.38;6926283;28;20214;-80
2022/01/28 09:02:03;;;;;;;8.93;6.07;;;;;;;9.17;53.49;100449.09;6926778;28;20266;-80
2022/01/28 09:05:27;;;;;;;7.37;5.60;;;;;;;9.05;52.70;100450.34;6926057;28;20235;-79
2022/01/28 09:08:53;;;;;;;8.27;5.50;;;;;;;9.07;53.52;100455.59;6928852;28;20238;-80
2022/01/28 09:12:31;;;;;;;9.10;5.50;;;;;;;9.27;52.94;100456.06;6917573;28;20196;-80
2022/01/28 09:15:55;;;;;;;7.20;5.30;;;;;;;9.25;53.51;100466.16;6924548;28;20227;-80
2022/01/28 09:19:16;;;;;;;9.53;5.63;;;;;;;9.03;53.32;100449.69;6926212;28;20204;-80
2022/01/28 09:22:39;;;;;;;8.80;5.40;;;;;;;9.47;52.53;100467.50;6923708;28;20204;-80
2022/01/28 09:26:01;;;;;;;7.87;5.53;;;;;;;9.44;51.94;100436.34;6916302;28;20251;-80
2022/01/28 09:29:23;;;;;;;8.37;5.70;;;;;;;9.72;51.82;100458.56;6924926;28;20740;-80
2022/01/28 09:32:44;;;;;;;8.03;5.27;;;;;;;9.96;51.88;100464.06;6925732;28;20207;-80
2022/01/28 09:36:07;;;;;;;7.83;5.40;;;;;;;9.55;51.50;100429.84;6924727;28;20337;-80
2022/01/28 09:39:32;;;;;;;7.03;5.07;;;;;;;9.50;52.49;100467.19;6926179;28;20208;-80
2022/01/28 09:42:54;;;;;;;8.90;5.27;;;;;;;9.82;51.81;100465.53;6925933;28;20191;-80
2022/01/28 09:46:17;;;;;;;9.67;5.83;;;;;;;9.64;51.43;100459.34;6925198;28;20254;-80
2022/01/28 09:49:40;;;;;;;8.37;4.93;;;;;;;10.16;51.33;100454.78;6923659;28;20233;-80
2022/01/28 09:53:02;;;;;;;9.67;5.10;;;;;;;9.92;50.74;100477.03;6924359;28;20282;-80
2022/01/28 09:56:25;;;;;;;8.97;5.10;;;;;;;10.02;50.61;100469.69;6924069;28;20240;-81
2022/01/28 09:59:47;;;;;;;6.03;5.07;;;;;;;9.99;50.37;100480.75;6923586;28;20209;-81
2022/01/28 10:03:09;;;;;;;7.23;4.80;;;;;;;10.54;49.77;100479.34;6906221;28;20208;-80
2022/01/28 10:06:32;;;;;;;11.87;5.20;;;;;;;10.15;49.93;100478.19;6895509;28;20232;-83
2022/01/28 10:09:54;;;;;;;8.80;4.57;;;;;;;10.30;48.27;100464.94;6895901;28;20232;-83
2022/01/28 10:13:23;;;;;;;5.37;4.00;;;;;;;10.38;47.83;100468.50;6895310;28;20286;-81
2022/01/28 10:16:55;;;;;;;7.97;4.27;;;;;;;10.44;48.40;100473.25;6900332;28;20225;-85
2022/01/28 10:20:17;;;;;;;8.00;4.53;;;;;;;9.97;48.30;100473.84;6924004;28;20203;-82
2022/01/28 10:23:38;;;;;;;8.83;4.50;;;;;;;9.78;49.37;100484.84;6922664;28;20594;-85
2022/01/28 10:27:06;;;;;;;8.87;5.40;;;;;;;10.49;49.33;100468.22;6924243;28;20227;-84
2022/01/28 10:30:29;;;;;;;9.97;5.50;;;;;;;10.78;48.54;100465.91;6924562;28;20223;-86
2022/01/28 10:33:50;;;;;;;8.77;3.57;;;;;;;10.77;48.11;100450.75;6922941;28;20672;-87
2022/01/28 10:37:15;;;;;;;8.07;3.30;;;;;;;11.05;46.78;100448.56;6923349;28;20734;-82
2022/01/28 10:40:36;;;;;;;8.00;3.73;;;;;;;10.79;47.31;100473.00;6922665;28;20670;-81
2022/01/28 10:43:58;;;;;;;6.87;3.33;;;;;;;11.07;47.64;100450.09;6924627;28;20219;-85
2022/01/28 10:47:37;;;;;;;8.37;3.73;;;;;;;11.28;47.02;100466.63;7050673;22;20231;-86
2022/01/28 10:50:59;;;;;;;9.73;4.30;;;;;;;11.26;47.15;100471.34;6975312;28;20269;-87
2022/01/28 10:54:22;;;;;;;6.30;3.43;;;;;;;11.05;46.27;100471.00;6971913;28;20293;-86
2022/01/28 10:57:58;;;;;;;7.73;3.90;;;;;;;10.68;46.71;100462.50;6947311;28;20206;-86
2022/01/28 11:01:20;;;;;;;6.63;3.20;;;;;;;10.51;47.20;100473.44;6942740;28;20214;-90
2022/01/28 11:04:43;;;;;;;8.83;3.77;;;;;;;10.35;47.07;100449.13;6945950;28;20241;-89
2022/01/28 11:08:07;;;;;;;5.63;3.30;;;;;;;11.19;45.61;100467.66;6945483;28;20204;-90
2022/01/28 11:11:28;;;;;;;5.47;3.40;;;;;;;11.49;45.35;100445.34;6948349;28;20231;-91
2022/01/28 11:14:50;;;;;;;7.43;3.87;;;;;;;11.81;44.04;100472.31;6946951;28;20252;-89
2022/01/28 11:18:12;;;;;;;5.97;3.13;;;;;;;11.13;45.46;100459.34;6945456;28;20224;-90
2022/01/28 11:21:51;;;;;;;8.87;3.63;;;;;;;11.35;45.22;100480.28;6930315;28;20235;-91
2022/01/28 11:25:35;;;;;;;7.27;2.90;;;;;;;10.62;44.96;100470.44;6942146;28;20714;-92
2022/01/28 11:29:02;;;;;;;8.27;3.10;;;;;;;10.56;44.15;100439.56;6946614;28;20214;-90
2022/01/28 11:32:24;;;;;;;8.53;3.17;;;;;;;10.67;45.14;100506.69;6949148;28;20195;-91
2022/01/28 11:36:01;;;;;;;6.53;3.20;;;;;;;10.73;44.96;100497.94;6939639;28;20238;-90
2022/01/28 11:39:32;;;;;;;5.00;3.10;;;;;;;10.27;45.72;100495.75;6952236;28;20191;-91
2022/01/28 11:43:20;;;;;;;5.80;3.27;;;;;;;10.02;46.72;100491.25;6966383;28;20203;-89
2022/01/28 11:46:47;;;;;;;5.00;3.30;;;;;;;10.74;45.46;100496.09;6948579;28;20239;-90
2022/01/28 11:50:10;;;;;;;8.50;3.97;;;;;;;10.38;45.47;100432.59;6936095;28;20286;-91
2022/01/28 11:53:32;;;;;;;8.17;3.30;;;;;;;10.63;44.68;100424.41;6939703;28;20215;-88
2022/01/28 11:57:27;;;;;;;6.57;3.87;;;;;;;9.85;46.36;100424.81;6950087;28;20227;-90
2022/01/28 12:00:50;;;;;;;8.23;4.43;;;;;;;10.58;46.38;100482.56;6881679;28;20212;-89
2022/01/28 12:04:37;;;;;;;10.40;3.60;;;;;;;10.17;47.08;100467.25;6957030;28;20297;-90
2022/01/28 12:08:01;;;;;;;7.60;3.40;;;;;;;9.31;49.52;100438.63;6955351;28;20209;-90
2022/01/28 12:11:42;;;;;;;7.53;5.10;;;;;;;9.75;51.08;100491.41;6956618;28;20231;-89
2022/01/28 12:15:11;;;;;;;8.63;4.70;;;;;;;8.70;54.56;100485.31;6958141;28;20250;-90
2022/01/28 12:18:52;;;;;;;8.90;5.20;;;;;;;9.68;51.58;100489.53;6958309;28;20214;-90
2022/01/28 12:22:14;;;;;;;8.27;5.00;;;;;;;10.33;49.50;100481.63;6962942;28;20237;-90
2022/01/28 12:25:55;;;;;;;8.27;4.73;;;;;;;9.65;49.01;100417.97;6959084;28;20231;-86
2022/01/28 12:29:29;;;;;;;8.73;4.97;;;;;;;10.55;47.58;100485.56;6957127;28;20202;-89
2022/01/28 12:32:52;;;;;;;7.93;5.07;;;;;;;10.21;48.36;100480.22;6951420;28;20210;-88
2022/01/28 12:36:17;;;;;;;11.30;4.80;;;;;;;10.87;46.15;100454.13;6958271;28;20222;-87
2022/01/28 12:39:44;;;;;;;8.20;5.67;;;;;;;9.95;46.85;100382.41;6957201;28;20690;-88
2022/01/28 12:43:06;;;;;;;6.07;4.33;;;;;;;10.73;46.73;100445.81;6959021;28;20625;-87
2022/01/28 12:46:28;;;;;;;9.13;5.13;;;;;;;10.70;46.92;100455.09;6958402;28;20250;-87
2022/01/28 12:49:55;;;;;;;7.50;4.70;;;;;;;11.02;46.29;100430.00;6954564;28;20237;-87
2022/01/28 12:53:27;;;;;;;7.27;4.30;;;;;;;11.68;44.25;100436.88;6948544;28;20195;-87
2022/01/28 12:56:50;;;;;;;7.57;4.50;;;;;;;11.26;44.26;100379.53;6946086;28;20247;-87
2022/01/28 13:00:14;;;;;;;11.97;5.67;;;;;;;11.66;45.10;100455.13;6938678;28;20222;-88
2022/01/28 13:03:43;;;;;;;6.93;4.57;;;;;;;10.54;47.15;100446.13;6958027;28;20206;-89
2022/01/28 13:10:46;;;;;;;9.40;4.50;;;;;;;10.96;46.43;100442.31;6956518;28;20206;-89
2022/01/28 13:14:07;;;;;;;9.83;4.67;;;;;;;10.70;47.34;100427.28;6955771;28;20206;-88
2022/01/28 13:17:29;;;;;;;7.93;5.90;;;;;;;9.79;48.68;100411.13;6958684;28;20227;-88
2022/01/28 13:20:51;;;;;;;9.03;5.00;;;;;;;10.01;49.02;100427.56;6958758;28;20562;-94
2022/01/28 13:24:18;;;;;;;9.70;5.30;;;;;;;10.07;48.76;100439.56;6969123;28;20191;-93
2022/01/28 13:27:42;;;;;;;6.93;5.10;;;;;;;9.47;49.72;100394.81;6951682;28;20227;-90
2022/01/28 13:31:03;;;;;;;11.10;5.07;;;;;;;10.06;47.80;100414.50;6923501;28;20230;-89
2022/01/28 13:34:25;;;;;;;8.67;5.40;;;;;;;10.69;47.08;100431.81;6923139;28;20694;-91
2022/01/28 13:37:48;;;;;;;9.20;5.70;;;;;;;10.56;47.50;100411.78;6924850;28;20203;-91
2022/01/28 13:41:21;;;;;;;8.17;5.33;;;;;;;9.75;48.38;100391.75;6923916;28;20203;-90
2022/01/28 13:44:48;;;;;;;9.03;5.80;;;;;;;9.92;49.48;100435.78;6923899;28;20231;-92
2022/01/28 13:48:13;;;;;;;10.77;6.13;;;;;;;9.99;48.66;100451.13;6930278;28;20207;-91
2022/01/28 13:51:35;;;;;;;11.47;6.43;;;;;;;10.29;48.07;100407.50;6931412;28;20228;-90
2022/01/28 13:54:56;;;;;;;10.63;6.50;;;;;;;10.81;47.31;100405.38;6923193;28;20232;-89
2022/01/28 13:58:20;;;;;;;9.10;6.13;;;;;;;10.49;48.09;100459.25;6936777;28;20196;-90
2022/01/28 14:01:50;;;;;;;8.17;6.77;;;;;;;10.40;47.86;100434.13;6948300;28;20208;-91
2022/01/28 14:05:12;;;;;;;11.67;5.83;;;;;;;10.39;48.42;100455.88;6953074;28;20226;-89
2022/01/28 14:08:43;;;;;;;11.37;6.93;;;;;;;10.64;47.54;100428.78;6955475;28;20227;-91
2022/01/28 14:12:06;;;;;;;9.60;6.00;;;;;;;10.29;48.13;100474.91;6949437;28;20222;-87
2022/01/28 14:15:38;;;;;;;10.37;6.73;;;;;;;10.30;47.55;100424.50;6954395;28;20230;-88
2022/01/28 14:19:00;;;;;;;11.17;5.87;;;;;;;10.43;48.20;100476.09;6956281;28;20635;-88
2022/01/28 14:22:21;;;;;;;9.00;5.93;;;;;;;9.72;48.57;100426.25;6951584;28;20214;-89
2022/01/28 14:25:43;;;;;;;9.47;5.87;;;;;;;9.94;48.94;100480.44;6949690;28;20227;-88
2022/01/28 14:29:23;;;;;;;11.10;6.73;;;;;;;10.44;47.92;100431.94;6949940;28;20206;-89
2022/01/28 14:32:46;;;;;;;8.90;5.87;;;;;;;9.98;48.61;100462.09;6950715;28;20684;-89
2022/01/28 14:36:08;;;;;;;11.27;6.43;;;;;;;10.57;47.85;100470.91;6949996;28;20238;-89
2022/01/28 14:39:30;;;;;;;12.00;6.87;;;;;;;9.92;47.99;100425.00;6931751;28;20210;-89
2022/01/28 14:42:51;;;;;;;12.57;6.80;;;;;;;9.54;49.20;100434.41;6941547;28;20226;-89
2022/01/28 14:46:13;;;;;;;9.17;6.40;;;;;;;9.65;48.46;100384.81;6948703;28;20799;-90
2022/01/28 14:49:37;;;;;;;10.53;6.27;;;;;;;9.86;49.07;100477.66;6937441;28;21259;-90
2022/01/28 14:52:58;;;;;;;8.97;6.20;;;;;;;9.94;48.42;100439.16;6958405;28;20226;-92
2022/01/28 14:56:20;;;;;;;12.97;6.67;;;;;;;9.99;49.30;100469.16;6962482;28;20234;-89
2022/01/28 14:59:44;;;;;;;10.73;5.67;;;;;;;9.72;48.44;100445.94;6961320;28;20218;-90
2022/01/28 15:03:09;;;;;;;10.97;6.40;;;;;;;9.32;48.78;100366.78;6963884;28;20207;-91
2022/01/28 15:06:33;;;;;;;11.80;6.83;;;;;;;9.85;48.67;100442.81;6969279;28;20235;-90
2022/01/28 15:09:57;;;;;;;8.40;5.60;;;;;;;9.28;48.82;100374.31;6965488;28;20266;-91
2022/01/28 15:13:18;;;;;;;11.90;5.90;;;;;;;9.19;49.11;100414.81;6964406;28;20200;-91
2022/01/28 15:16:40;;;;;;;8.13;6.67;;;;;;;9.51;49.50;100458.94;6956552;28;20230;-92
2022/01/28 15:20:08;;;;;;;11.03;6.50;;;;;;;9.95;48.50;100454.31;6976759;28;20210;-87
2022/01/28 15:23:32;;;;;;;8.83;5.73;;;;;;;9.28;48.19;100389.66;6983005;28;20206;-86
2022/01/28 15:26:54;;;;;;;9.63;6.03;;;;;;;10.04;47.50;100485.72;6979326;28;20249;-86
2022/01/28 15:34:11;;;;;;;9.33;6.07;;;;;;;9.66;48.42;100405.34;6981725;28;20222;-84
2022/01/28 15:34:20;;;;;;;11.30;5.73;;;;;;;9.90;48.46;100435.94;6961183;28;20254;-86
2022/01/28 15:37:42;;;;;;;9.03;5.40;;;;;;;9.81;48.79;100469.22;6950492;28;20230;-86
2022/01/28 15:41:06;;;;;;;10.53;5.53;;;;;;;10.44;47.49;100458.91;6950202;28;20206;-86
2022/01/28 15:44:28;;;;;;;10.77;5.70;;;;;;;10.22;47.52;100468.44;6948986;28;20300;-86
2022/01/28 15:47:51;;;;;;;10.70;6.20;;;;;;;10.14;47.86;100486.44;6935713;28;20219;-86
2022/01/28 15:51:13;;;;;;;9.67;6.23;;;;;;;9.68;47.27;100389.88;6950080;28;20388;-86
2022/01/28 15:54:34;;;;;;;10.23;6.13;;;;;;;10.28;47.82;100493.91;6925856;28;20206;-84
2022/01/28 15:57:57;;;;;;;12.87;6.30;;;;;;;10.22;48.25;100491.88;6923250;28;20211;-86
2022/01/28 16:01:22;;;;;;;10.57;6.73;;;;;;;10.25;47.57;100469.97;6925163;28;20215;-84
2022/01/28 16:04:45;;;;;;;15.07;7.20;;;;;;;9.93;48.17;100491.38;6925251;28;20289;-84
2022/01/28 16:08:09;;;;;;;11.17;6.67;;;;;;;9.63;48.71;100498.06;6927141;28;20200;-87
2022/01/28 16:11:33;;;;;;;12.33;7.00;;;;;;;9.34;48.58;100399.78;6924757;28;20232;-84
2022/01/28 16:15:06;;;;;;;11.37;6.67;;;;;;;9.94;47.60;100441.84;6924687;28;20704;-87
2022/01/28 16:18:28;;;;;;;40.00;25.60;;;;;;;10.26;47.97;100507.56;6925883;28;20199;-88
2022/01/28 16:21:49;;;;;;;15.67;11.60;;;;;;;9.92;48.07;100486.97;6950409;28;20683;-89
2022/01/28 16:25:11;;;;;;;10.33;7.23;;;;;;;9.09;48.92;100447.19;6958060;28;20237;-86
2022/01/28 16:28:33;;;;;;;13.10;10.00;;;;;;;9.54;48.45;100479.31;6943053;28;20716;-85
2022/01/28 16:31:57;;;;;;;11.87;6.40;;;;;;;9.50;48.89;100518.34;6929534;28;20243;-86
2022/01/28 16:35:18;;;;;;;24.27;12.37;;;;;;;9.45;49.15;100502.66;6925405;28;20726;-87
2022/01/28 16:38:40;;;;;;;27.63;18.27;;;;;;;9.50;48.86;100537.19;6925086;28;20208;-87
2022/01/28 16:42:03;;;;;;;27.20;17.50;;;;;;;9.69;48.86;100524.38;6926616;28;20212;-87
2022/01/28 16:45:24;;;;;;;14.30;8.57;;;;;;;9.65;49.03;100546.38;6925956;28;20231;-87
2022/01/28 16:48:47;;;;;;;10.03;7.60;;;;;;;9.53;49.38;100539.56;6927489;28;20221;-88
2022/01/28 16:52:09;;;;;;;13.13;7.53;;;;;;;9.21;48.79;100474.72;6926667;28;20251;-88
2022/01/28 16:55:30;;;;;;;17.37;7.77;;;;;;;9.84;48.12;100547.03;6927173;28;20305;-87
2022/01/28 16:58:52;;;;;;;10.43;7.43;;;;;;;9.47;48.99;100530.28;6926837;28;20579;-87
2022/01/28 17:02:17;;;;;;;10.93;7.63;;;;;;;9.68;48.37;100554.16;6926099;28;20218;-89
2022/01/28 17:05:39;;;;;;;9.73;7.70;;;;;;;9.49;48.95;100557.88;6924334;28;20219;-89
2022/01/28 17:09:02;;;;;;;14.20;8.40;;;;;;;9.58;48.26;100521.09;6924993;28;20212;-89
2022/01/28 17:12:36;;;;;;;18.90;16.17;;;;;;;9.63;48.38;100526.88;6926276;28;20254;-89
2022/01/28 17:15:57;;;;;;;16.90;7.60;;;;;;;10.06;47.67;100551.94;6954849;28;20316;-88
2022/01/28 17:19:19;;;;;;;11.77;10.63;;;;;;;9.10;48.46;100477.66;6945930;28;20212;-89
2022/01/28 17:22:43;;;;;;;12.63;8.40;;;;;;;9.69;48.35;100563.94;6928641;28;20208;-89
2022/01/28 17:26:05;;;;;;;16.10;8.63;;;;;;;9.88;48.61;100569.13;6941097;28;20238;-89
2022/01/28 17:29:27;;;;;;;11.43;6.83;;;;;;;9.46;49.00;100546.59;6955462;28;20300;-89
2022/01/28 17:32:50;;;;;;;9.73;6.83;;;;;;;9.68;48.42;100568.47;6954769;28;20227;-89
2022/01/28 17:36:11;;;;;;;12.80;7.10;;;;;;;10.05;47.96;100579.03;6953449;28;20232;-89
2022/01/28 17:39:34;;;;;;;11.03;6.70;;;;;;;9.33;48.50;100505.75;6953265;28;20211;-89
2022/01/28 17:42:56;;;;;;;11.37;7.43;;;;;;;9.06;48.55;100476.25;6949059;28;20215;-89
2022/01/28 17:46:17;;;;;;;10.70;7.83;;;;;;;9.47;48.76;100553.66;6947480;28;20314;-89
2022/01/28 17:49:39;;;;;;;10.90;7.53;;;;;;;9.87;48.35;100580.91;6951931;28;20203;-88
2022/01/28 17:53:01;;;;;;;14.77;8.07;;;;;;;9.54;48.61;100570.88;6949953;28;20229;-89
2022/01/28 17:56:24;;;;;;;10.47;6.90;;;;;;;9.57;48.08;100566.00;6945564;28;20226;-87
2022/01/28 17:59:47;;;;;;;12.37;7.00;;;;;;;9.14;49.25;100512.16;6953332;28;20210;-87
2022/01/28 18:03:09;;;;;;;11.20;7.87;;;;;;;9.41;48.92;100538.97;6953586;28;20202;-88
2022/01/28 18:06:31;;;;;;;9.70;8.07;;;;;;;9.72;48.20;100575.25;6958460;28;20225;-87
2022/01/28 18:09:53;;;;;;;8.40;7.07;;;;;;;9.87;48.57;100581.72;6959862;28;20201;-87
2022/01/28 18:13:22;;;;;;;13.67;7.63;;;;;;;9.73;48.33;100584.16;6958891;28;20224;-89
2022/01/28 18:16:45;;;;;;;7.97;6.50;;;;;;;9.08;48.40;100544.19;6960154;28;20320;-86
2022/01/28 18:20:08;;;;;;;12.70;7.93;;;;;;;9.11;48.47;100522.38;6931926;28;20250;-87
2022/01/28 18:23:29;;;;;;;10.73;7.20;;;;;;;9.58;48.28;100610.78;6932119;28;20294;-89
2022/01/28 18:26:51;;;;;;;9.27;7.27;;;;;;;9.66;48.40;100610.88;6927388;28;20827;-89
2022/01/28 18:30:14;;;;;;;11.90;7.10;;;;;;;9.68;48.23;100613.44;6928082;28;20224;-86
2022/01/28 18:33:37;;;;;;;11.80;7.27;;;;;;;9.39;49.27;100629.81;6927246;28;20231;-87
2022/01/28 18:36:58;;;;;;;13.67;7.30;;;;;;;9.81;47.98;100601.22;6934320;28;20232;-87
2022/01/28 18:40:20;;;;;;;10.50;7.80;;;;;;;9.80;47.89;100609.47;6948180;28;20214;-85
2022/01/28 18:43:42;;;;;;;12.23;7.87;;;;;;;9.66;47.77;100593.84;6947593;28;20209;-85
2022/01/28 18:47:07;;;;;;;12.00;8.20;;;;;;;9.42;48.93;100634.03;6948459;28;20243;-85
2022/01/28 18:50:30;;;;;;;10.33;8.07;;;;;;;9.63;48.81;100640.81;6949466;28;20211;-86
2022/01/28 18:53:51;;;;;;;12.10;7.10;;;;;;;9.67;48.64;100644.03;6948321;28;20237;-84
2022/01/28 18:57:13;;;;;;;15.27;11.03;;;;;;;9.75;48.28;100642.25;6967834;28;20207;-85
2022/01/28 19:00:35;;;;;;;14.37;8.27;;;;;;;9.76;48.14;100627.81;6962477;28;20714;-88
2022/01/28 19:03:58;;;;;;;10.23;8.00;;;;;;;9.77;47.85;100656.44;6945663;28;20313;-85
2022/01/28 19:07:20;;;;;;;12.83;8.63;;;;;;;9.73;48.18;100640.72;6946930;28;20733;-85
2022/01/28 19:10:42;;;;;;;14.30;9.50;;;;;;;9.87;47.95;100654.47;6945493;28;20209;-85
2022/01/28 19:14:05;;;;;;;10.43;8.47;;;;;;;9.23;48.23;100581.22;6946188;28;20232;-83
2022/01/28 19:17:27;;;;;;;12.40;10.53;;;;;;;9.73;48.03;100646.09;6945709;28;20245;-82
2022/01/28 19:20:50;;;;;;;14.53;9.30;;;;;;;9.72;48.33;100633.63;6945940;28;20815;-85
2022/01/28 19:24:12;;;;;;;12.20;8.47;;;;;;;9.04;48.79;100580.50;6944701;28;20214;-85
2022/01/28 19:27:33;;;;;;;15.13;10.77;;;;;;;9.50;48.27;100615.28;6946506;28;20269;-84
2022/01/28 19:30:56;;;;;;;17.47;9.47;;;;;;;9.53;48.78;100655.34;6945199;28;20204;-82
2022/01/28 19:34:18;;;;;;;15.47;9.57;;;;;;;9.31;48.42;100610.88;6951284;28;20213;-85
2022/01/28 19:37:41;;;;;;;13.07;8.43;;;;;;;9.59;48.81;100658.28;6954180;28;20364;-86
2022/01/28 19:41:03;;;;;;;14.13;9.27;;;;;;;8.96;49.53;100587.66;6951477;28;20817;-83
2022/01/28 19:44:25;;;;;;;16.63;9.53;;;;;;;9.88;48.31;100647.25;6952618;28;20680;-83
2022/01/28 19:47:49;;;;;;;15.73;10.03;;;;;;;10.01;47.99;100650.38;6952298;28;20242;-83
2022/01/28 19:51:11;;;;;;;15.40;8.50;;;;;;;9.70;47.61;100652.66;6952316;28;20209;-83
2022/01/28 19:54:34;;;;;;;18.40;8.60;;;;;;;9.41;48.02;100617.06;6926127;28;20197;-83
2022/01/28 19:57:55;;;;;;;13.67;8.43;;;;;;;9.61;48.85;100650.91;6923002;28;20207;-84
2022/01/28 20:01:17;;;;;;;13.03;8.10;;;;;;;9.76;48.31;100640.41;6923203;28;20303;-83
2022/01/28 20:04:39;;;;;;;10.03;7.77;;;;;;;9.57;48.31;100643.28;6923987;28;20559;-84
2022/01/28 20:08:00;;;;;;;11.00;7.73;;;;;;;9.42;48.06;100659.13;6924170;28;20247;-86
2022/01/28 20:11:25;;;;;;;15.60;8.23;;;;;;;9.63;48.19;100615.72;6922419;28;20214;-85
2022/01/28 20:14:50;;;;;;;11.13;7.17;;;;;;;10.05;46.95;100641.84;6921539;28;20226;-86
2022/01/28 20:18:11;;;;;;;9.33;6.73;;;;;;;9.69;47.99;100624.03;6922402;28;20200;-86
2022/01/28 20:21:33;;;;;;;14.10;8.23;;;;;;;9.72;48.04;100609.41;6922437;28;20206;-86
2022/01/28 20:24:55;;;;;;;11.97;8.03;;;;;;;9.86;47.97;100633.94;6921223;28;20220;-87
2022/01/28 20:28:18;;;;;;;12.07;8.00;;;;;;;9.60;48.04;100610.66;6925475;28;20589;-86
2022/01/28 20:31:39;;;;;;;11.60;7.93;;;;;;;10.01;47.52;100629.69;6921890;28;20236;-86
2022/01/28 20:35:01;;;;;;;10.37;6.63;;;;;;;9.11;47.67;100522.38;6921229;28;20249;-86
2022/01/28 20:38:23;;;;;;;10.57;7.90;;;;;;;9.86;47.80;100644.72;6921637;28;20212;-86
2022/01/28 20:41:47;;;;;;;17.67;12.77;;;;;;;9.84;47.97;100635.94;6920573;28;20211;-86
2022/01/28 20:45:10;;;;;;;14.17;8.53;;;;;;;9.66;48.74;100636.94;6916268;28;20966;-87
2022/01/28 20:48:33;;;;;;;11.77;8.90;;;;;;;9.47;49.05;100623.66;6947690;28;20210;-86
2022/01/28 20:51:57;;;;;;;20.10;10.03;;;;;;;9.39;49.59;100608.25;6947992;28;20230;-87